Aérodrome :
LOGIN :

S'inscrire | Disclaimer

   EN    FR    IT 

 










Légende :    VFR   VFR Marginal   IFR   IFR Intensif   IFR Très Intensif
Visi : 
Plafond : 
>= 8 km
>= 3000ft
5 à 8 km
1000 à 3000 ft
1500m à 5 km
500 à 1000 ft
800 à 1500m
200 à 500 ft
< 800m
< 200 ft
Symboles :   Orages  Brouillard  Fortes neiges  Fortes précipitations  Vent > 20 kt
SIGMETs :   Divers  Orages  Givrage  Turbulence  Onde Orograph.  Cendres Volcan.







- Altitude de l'aérodrome : 1411 ft
- Code IATA : SZG


LOWS - Salzburg

DERNIER METAR :
  • 272250Z AUTO 20005KT 9999 SCT250 16/12 Q1018

METARs EXPIRÉS :
  • 272220Z AUTO 18005KT 9999 SCT250 16/12 Q1018
  • 272150Z AUTO 16006KT 9999 SCT250 17/12 Q1019
  • 272120Z AUTO 17007KT 9999 SCT250 17/13 Q1018
  • 272050Z 14006KT 110V170 CAVOK 18/13 Q1018 NOSIG
  • 272020Z 19007KT CAVOK 18/13 Q1019 NOSIG

TAF TAF LOWS
Valide du 27 à 18h jusqu'au 28 à 18h UTC


271715Z 2718/2818 15005KT 9999 FEW060 SCT090 BKN150 TX29/2813Z TN15/2803Z
TEMPO 2718/2720 15013KT
BECMG 2719/2721 CAVOK
BECMG 2807/2809 35006KT 9999 FEW060
TEMPO 2812/2818 03008KT FEW050 FEW060CB SCT090
PROB30
TEMPO 2814/2818 -TSRA
Pas de NOTAMs connus pour ce terrain.



MET'MAP, la Météo Aéronautique d'un coup d'oeil ! - Copyright ORBIFLY Décembre 2007 - Disclaimer

ORBIFLY MET'MAP TEAM :

Programmation & Développement : Alexandra Zaïnal
Conception & Développement : Baudouin d'Aumeries
Co-Programmation & Développement : Marc-Olivier Méhu
Soutien technique & logistique : Manuel Goepfert

Contact : metmap@orbifly.com




SOURCES & CREDITS :

   NOAA